This is the latest recevied weather packets stored in our database for station/object n3uvr. If no packets are shown the sender has not sent any weather packets the latest 10 day(s).
| Time | Temp. | Humidity | Pressure | Rain* | Wind** | Luminosity | Snow |
|---|---|---|---|---|---|---|---|
| 1777735193 | 11.11° C | 60% | 1011.8 hPa | 0 mm | - | 139 W/m² | - |
| 1777734589 | 10.56° C | 60% | 1011.8 hPa | 0 mm | - | 185 W/m² | - |
| 1777733975 | 10.56° C | 58% | 1011.7 hPa | 0 mm | - | 146 W/m² | - |
| 1777733388 | 9.44° C | 64% | 1011.8 hPa | 0 mm | - | 364 W/m² | - |
| 1777731580 | 8.89° C | 74% | 1012.2 hPa | 0 mm | - | 77 W/m² | - |
| 1777730969 | 8.89° C | 77% | 1012.3 hPa | 0 mm | - | 675 W/m² | - |
| 1777730360 | 8.33° C | 82% | 1012.2 hPa | 0 mm | - | 278 W/m² | - |
| 1777729742 | 7.78° C | 84% | 1012.4 hPa | 0 mm | - | 371 W/m² | - |
| 1777729127 | 7.22° C | 87% | 1012.4 hPa | 0 mm | - | 229 W/m² | - |
| 1777728518 | 6.67° C | 88% | 1012.5 hPa | 0 mm | - | 135 W/m² | - |
| 1777726739 | 6.11° C | 88% | 1012.5 hPa | 0 mm | - | 93 W/m² | - |
| 1777725540 | 5.56° C | 88% | 1012.2 hPa | 0 mm | - | 84 W/m² | - |
| 1777724945 | 5.56° C | 88% | 1012.3 hPa | 0 mm | - | 63 W/m² | - |
| 1777723749 | 5.56° C | 88% | 1012.4 hPa | 0 mm | - | 39 W/m² | - |
| 1777722536 | 5° C | 88% | 1012.5 hPa | 0 mm | - | 62 W/m² | - |
| 1777721927 | 5° C | 88% | 1012.3 hPa | 0 mm | - | 44 W/m² | - |
| 1777721325 | 5° C | 88% | 1012.2 hPa | 0 mm | - | 37 W/m² | - |
| 1777720732 | 5° C | 88% | 1012.1 hPa | 0 mm | - | 25 W/m² | - |
| 1777720127 | 5° C | 88% | 1011.8 hPa | 0 mm | - | 14 W/m² | - |
| 1777719537 | 5° C | 88% | 1011.8 hPa | 0 mm | - | 7 W/m² | - |
| 1777718951 | 5.56° C | 88% | 1011.8 hPa | 0 mm | - | 0 W/m² | - |
| 1777718345 | 5.56° C | 88% | 1012 hPa | 0 mm | - | 0 W/m² | - |
| 1777717743 | 5.56° C | 88% | 1011.8 hPa | 0 mm | - | 0 W/m² | - |
| 1777717121 | 5.56° C | 88% | 1011.4 hPa | 0 mm | - | 0 W/m² | - |
| 1777715313 | 5.56° C | 88% | 1010.9 hPa | 0.25 mm | - | 0 W/m² | - |
* Rain latest hour (hover to see other rain measurements)
** Current wind speed in m/s (hover to see current wind gust speed)